createdAt,value
2024-02-28T00:02:14.116Z,10.95
2024-02-28T00:04:41.658Z,11.55
2024-02-28T00:07:08.646Z,11.23
2024-02-28T00:09:35.563Z,12.13
2024-02-28T00:12:02.560Z,13.25
2024-02-28T00:14:29.525Z,11.27
2024-02-28T00:16:56.502Z,11.63
2024-02-28T00:19:26.241Z,12.30
2024-02-28T00:21:53.284Z,11.98
2024-02-28T00:24:20.409Z,11.57
2024-02-28T00:26:47.353Z,12.63
2024-02-28T00:29:14.362Z,11.70
2024-02-28T00:31:41.256Z,10.68
2024-02-28T00:34:09.893Z,11.43
2024-02-28T00:36:47.866Z,10.68
2024-02-28T00:39:19.407Z,12.10
2024-02-28T00:41:46.309Z,12.63
2024-02-28T00:44:13.244Z,9.90
2024-02-28T00:46:40.932Z,10.32
2024-02-28T00:49:07.792Z,11.90
2024-02-28T00:51:35.045Z,11.35
2024-02-28T00:54:02.067Z,11.65
2024-02-28T00:56:29.286Z,11.75
2024-02-28T00:58:56.095Z,10.40
2024-02-28T01:01:23.131Z,9.80
2024-02-28T01:03:50.226Z,11.27
2024-02-28T01:06:17.763Z,11.85
2024-02-28T01:08:44.707Z,11.82
2024-02-28T01:11:12.011Z,11.00
2024-02-28T01:13:38.962Z,12.10
2024-02-28T01:16:05.926Z,11.10
2024-02-28T01:18:33.524Z,11.07
2024-02-28T01:21:00.577Z,12.05
2024-02-28T01:23:27.914Z,9.88
2024-02-28T01:25:54.899Z,9.93
2024-02-28T01:28:22.524Z,10.38
2024-02-28T01:30:49.966Z,9.07
2024-02-28T01:33:17.156Z,9.93
2024-02-28T01:35:44.321Z,11.70
2024-02-28T01:38:11.167Z,9.82
2024-02-28T01:40:38.068Z,9.20
2024-02-28T01:43:08.082Z,11.02
2024-02-28T01:45:35.100Z,9.65
2024-02-28T01:48:02.258Z,9.63
2024-02-28T01:50:29.317Z,9.82
2024-02-28T01:52:56.585Z,9.85
2024-02-28T01:55:23.541Z,10.35
2024-02-28T01:57:50.640Z,9.75
2024-02-28T02:00:20.106Z,10.77
2024-02-28T02:02:46.992Z,11.38
2024-02-28T02:05:15.169Z,12.20
2024-02-28T02:07:42.304Z,11.20
2024-02-28T02:10:13.098Z,13.25
2024-02-28T02:12:40.142Z,10.32
2024-02-28T02:15:07.653Z,11.63
2024-02-28T02:17:34.697Z,10.93
2024-02-28T02:20:02.213Z,11.60
2024-02-28T02:22:35.413Z,10.52
2024-02-28T02:25:04.666Z,11.48
2024-02-28T02:27:32.002Z,13.10
2024-02-28T02:29:59.037Z,11.27
2024-02-28T02:32:26.067Z,13.20
2024-02-28T02:34:53.632Z,12.07
2024-02-28T02:37:20.743Z,12.07
2024-02-28T02:39:47.673Z,12.15
2024-02-28T02:42:18.711Z,12.18
2024-02-28T02:44:45.746Z,13.32
2024-02-28T02:47:12.676Z,13.70
2024-02-28T02:49:39.549Z,11.50
2024-02-28T02:52:06.789Z,11.73
2024-02-28T02:54:33.790Z,13.18
2024-02-28T02:57:00.760Z,12.45
2024-02-28T02:59:27.622Z,12.45
2024-02-28T03:01:54.547Z,11.95
2024-02-28T03:04:21.429Z,12.35
2024-02-28T03:06:48.404Z,15.45
2024-02-28T03:09:15.437Z,15.18
2024-02-28T03:11:42.397Z,12.02
2024-02-28T03:14:09.237Z,13.48
2024-02-28T03:16:38.734Z,13.88
2024-02-28T03:19:06.334Z,13.70
2024-02-28T03:21:33.256Z,12.52
2024-02-28T03:24:00.328Z,11.30
2024-02-28T03:26:27.125Z,10.75
2024-02-28T03:28:54.105Z,12.07
2024-02-28T03:31:21.159Z,13.10
2024-02-28T03:33:48.312Z,12.13
2024-02-28T03:36:15.377Z,13.05
2024-02-28T03:38:43.518Z,13.68
2024-02-28T03:41:10.626Z,12.90
2024-02-28T03:43:37.494Z,15.35
2024-02-28T03:46:04.540Z,14.18
2024-02-28T03:48:31.499Z,15.70
2024-02-28T03:50:58.279Z,16.63
2024-02-28T03:53:25.104Z,16.65
2024-02-28T03:55:51.911Z,15.68
2024-02-28T03:58:18.730Z,16.65
2024-02-28T04:00:47.511Z,18.70
2024-02-28T04:03:18.077Z,16.45
2024-02-28T04:05:45.003Z,15.48
2024-02-28T04:08:12.653Z,17.25
2024-02-28T04:10:39.650Z,16.48
2024-02-28T04:13:06.545Z,18.20
2024-02-28T04:15:34.079Z,16.05
2024-02-28T04:18:01.137Z,14.98
2024-02-28T04:20:28.575Z,17.70
2024-02-28T04:22:55.457Z,17.33
2024-02-28T04:25:22.373Z,18.10
2024-02-28T04:27:50.792Z,16.38
2024-02-28T04:30:17.929Z,17.98
2024-02-28T04:32:44.864Z,18.67
2024-02-28T04:35:11.743Z,17.25
2024-02-28T04:37:38.807Z,18.52
2024-02-28T04:40:07.707Z,16.73
2024-02-28T04:42:34.713Z,17.05
2024-02-28T04:45:01.596Z,15.98
2024-02-28T04:47:36.146Z,17.50
2024-02-28T04:50:07.420Z,15.07
2024-02-28T04:52:34.804Z,14.75
2024-02-28T04:55:02.150Z,14.20
2024-02-28T04:57:29.144Z,17.05
2024-02-28T04:59:56.111Z,18.80
2024-02-28T05:02:27.181Z,15.90
2024-02-28T05:04:54.152Z,16.30
2024-02-28T05:07:21.161Z,16.75
2024-02-28T05:09:48.105Z,18.00
2024-02-28T05:12:15.160Z,17.45
2024-02-28T05:14:41.964Z,17.58
2024-02-28T05:17:09.099Z,18.25
2024-02-28T05:19:36.052Z,16.15
2024-02-28T05:22:04.052Z,17.35
2024-02-28T05:24:31.187Z,17.73
2024-02-28T05:26:58.187Z,15.65
2024-02-28T05:29:25.777Z,16.98
2024-02-28T05:31:53.052Z,17.13
2024-02-28T05:34:19.952Z,17.63
2024-02-28T05:36:46.913Z,18.20
2024-02-28T05:39:13.908Z,17.30
2024-02-28T05:41:40.962Z,17.98
2024-02-28T05:44:07.976Z,17.40
2024-02-28T05:46:34.984Z,16.88
2024-02-28T05:49:01.941Z,20.27
2024-02-28T05:51:28.911Z,18.58
2024-02-28T05:53:55.780Z,19.83
2024-02-28T05:56:23.507Z,18.27
2024-02-28T05:58:50.370Z,16.92
2024-02-28T06:01:18.767Z,17.73
2024-02-28T06:03:49.549Z,19.65
2024-02-28T06:06:16.836Z,20.52
2024-02-28T06:08:44.390Z,17.17
2024-02-28T06:11:11.746Z,20.27
2024-02-28T06:13:42.242Z,18.35
2024-02-28T06:16:14.534Z,19.27
2024-02-28T06:21:08.261Z,19.70
2024-02-28T06:23:35.066Z,19.52
2024-02-28T06:26:02.125Z,22.13
2024-02-28T06:28:29.056Z,20.50
2024-02-28T06:30:55.989Z,19.42
2024-02-28T06:33:23.177Z,25.50
2024-02-28T06:35:50.213Z,20.00
2024-02-28T06:38:17.002Z,20.08
2024-02-28T06:40:43.904Z,20.92
2024-02-28T06:43:10.742Z,26.25
2024-02-28T06:45:37.938Z,27.90
2024-02-28T06:48:05.930Z,24.15
2024-02-28T06:50:32.866Z,26.15
2024-02-28T06:52:59.726Z,24.45
2024-02-28T06:55:26.546Z,28.15
2024-02-28T06:57:53.675Z,31.75
2024-02-28T07:00:20.955Z,24.17
2024-02-28T07:02:48.027Z,24.10
2024-02-28T07:05:14.964Z,22.48
2024-02-28T07:07:42.035Z,21.65
2024-02-28T07:10:09.383Z,23.08
2024-02-28T07:12:36.495Z,20.63
2024-02-28T07:15:03.714Z,18.05
2024-02-28T07:17:30.995Z,15.95
2024-02-28T07:19:57.828Z,19.25
2024-02-28T07:22:25.077Z,19.67
2024-02-28T07:24:51.922Z,21.45
2024-02-28T07:27:18.981Z,19.20
2024-02-28T07:29:46.017Z,20.05
2024-02-28T07:32:12.863Z,20.23
2024-02-28T07:34:40.681Z,15.00
2024-02-28T07:37:07.653Z,16.45
2024-02-28T07:39:34.742Z,17.50
2024-02-28T07:42:01.839Z,15.73
2024-02-28T07:44:31.677Z,14.18
2024-02-28T07:47:00.041Z,15.50
2024-02-28T07:49:28.732Z,15.35
2024-02-28T07:51:56.250Z,14.20
2024-02-28T07:54:23.557Z,17.10
2024-02-28T07:56:50.612Z,16.88
2024-02-28T07:59:17.621Z,15.00
2024-02-28T08:01:44.827Z,16.25
2024-02-28T08:04:12.110Z,17.23
2024-02-28T08:06:41.297Z,17.35
2024-02-28T08:09:11.675Z,15.35
2024-02-28T08:11:40.243Z,12.20
2024-02-28T08:14:07.180Z,17.05
2024-02-28T08:16:34.063Z,17.38
2024-02-28T08:19:01.491Z,17.13
2024-02-28T08:21:29.027Z,16.77
2024-02-28T08:23:56.330Z,17.42
2024-02-28T08:26:25.627Z,16.50
2024-02-28T08:28:52.609Z,15.85
2024-02-28T08:31:19.514Z,15.73
2024-02-28T08:33:46.560Z,17.42
2024-02-28T08:36:13.430Z,17.30
2024-02-28T08:38:40.480Z,16.02
2024-02-28T08:41:08.302Z,17.17
2024-02-28T08:43:41.948Z,17.60
2024-02-28T08:46:08.919Z,15.63
2024-02-28T08:48:35.964Z,18.15
2024-02-28T08:51:02.989Z,17.40
2024-02-28T08:53:29.969Z,16.95
2024-02-28T08:55:56.938Z,17.58
2024-02-28T08:58:23.871Z,17.77
2024-02-28T09:00:51.001Z,16.75
2024-02-28T09:03:18.064Z,16.70
2024-02-28T09:05:45.067Z,15.23
2024-02-28T09:08:14.648Z,15.68
2024-02-28T09:10:42.090Z,17.98
2024-02-28T09:13:09.295Z,17.67
2024-02-28T09:15:36.491Z,16.55
2024-02-28T09:18:03.974Z,17.77
2024-02-28T09:20:31.064Z,19.70
2024-02-28T09:22:58.085Z,17.33
2024-02-28T09:25:27.934Z,20.52
2024-02-28T09:27:56.335Z,19.58
2024-02-28T09:30:24.678Z,23.45
2024-02-28T09:32:52.689Z,20.80
2024-02-28T09:35:20.850Z,17.58
2024-02-28T09:37:47.745Z,20.83
2024-02-28T09:40:14.818Z,20.83
2024-02-28T09:42:42.165Z,29.55
2024-02-28T09:45:14.007Z,20.35
2024-02-28T09:47:41.129Z,20.08
2024-02-28T09:50:08.591Z,21.08
2024-02-28T09:52:36.527Z,22.10
2024-02-28T09:55:04.032Z,20.30
2024-02-28T09:57:32.604Z,21.25
2024-02-28T10:00:01.575Z,22.25
2024-02-28T10:02:29.955Z,21.75
2024-02-28T10:04:58.619Z,20.95
2024-02-28T10:07:25.636Z,19.23
2024-02-28T10:09:52.767Z,20.35
2024-02-28T10:12:21.824Z,20.73
2024-02-28T10:14:52.210Z,21.23
2024-02-28T10:17:19.397Z,22.33
2024-02-28T10:19:46.317Z,22.92
2024-02-28T10:22:13.241Z,22.25
2024-02-28T10:24:40.313Z,23.83
2024-02-28T10:27:07.329Z,24.63
2024-02-28T10:29:34.413Z,21.30
2024-02-28T10:32:02.832Z,20.00
2024-02-28T10:34:31.253Z,23.90
2024-02-28T10:36:58.956Z,22.27
2024-02-28T10:39:27.971Z,22.05
2024-02-28T10:41:55.441Z,25.05
2024-02-28T10:44:23.158Z,20.17
2024-02-28T10:46:51.474Z,25.98
2024-02-28T10:49:18.865Z,24.50
2024-02-28T10:51:49.742Z,24.13
2024-02-28T10:54:20.599Z,26.80
2024-02-28T10:56:47.916Z,25.00
2024-02-28T10:59:14.915Z,28.42
2024-02-28T11:01:44.961Z,24.58
2024-02-28T11:04:13.644Z,22.40
2024-02-28T11:06:56.625Z,26.88
2024-02-28T11:09:25.523Z,25.55
2024-02-28T11:11:53.716Z,24.50
2024-02-28T11:14:26.114Z,24.83
2024-02-28T11:17:06.931Z,25.73
2024-02-28T11:19:36.018Z,24.98
2024-02-28T11:22:05.412Z,25.63
2024-02-28T11:24:34.583Z,27.15
2024-02-28T11:27:04.622Z,28.08
2024-02-28T11:29:32.250Z,27.83
2024-02-28T11:31:59.465Z,27.67
2024-02-28T11:34:27.191Z,27.45
2024-02-28T11:36:57.166Z,26.05
2024-02-28T11:39:26.688Z,25.77
2024-02-28T11:41:54.417Z,25.90
2024-02-28T11:44:21.425Z,29.85
2024-02-28T11:46:51.715Z,25.90
2024-02-28T11:49:18.860Z,26.88
2024-02-28T11:51:46.486Z,29.45
2024-02-28T11:54:13.788Z,26.30
2024-02-28T11:56:41.714Z,24.85
2024-02-28T11:59:12.308Z,27.42
2024-02-28T12:01:45.710Z,26.42
2024-02-28T12:04:13.551Z,28.73
2024-02-28T12:06:41.800Z,26.35
2024-02-28T12:09:10.673Z,29.08
2024-02-28T12:11:38.973Z,25.05
2024-02-28T12:14:10.484Z,25.25
2024-02-28T12:16:39.116Z,25.52
2024-02-28T12:19:09.258Z,24.38
2024-02-28T12:21:37.371Z,24.25
2024-02-28T12:24:05.786Z,31.65
2024-02-28T12:26:32.690Z,24.50
2024-02-28T12:28:59.670Z,23.27
2024-02-28T12:31:26.595Z,25.65
2024-02-28T12:33:53.984Z,26.67
2024-02-28T12:36:21.798Z,27.58
2024-02-28T12:38:48.951Z,20.77
2024-02-28T12:41:19.142Z,25.05
2024-02-28T12:43:46.194Z,23.88
2024-02-28T12:46:13.078Z,22.45
2024-02-28T12:48:41.953Z,22.02
2024-02-28T12:51:12.717Z,22.30
2024-02-28T12:53:39.617Z,22.25
2024-02-28T12:56:06.992Z,17.92
2024-02-28T12:58:34.004Z,20.95
2024-02-28T13:01:01.081Z,19.85
2024-02-28T13:03:28.738Z,19.63
2024-02-28T13:05:56.074Z,19.20
2024-02-28T13:08:23.057Z,19.17
2024-02-28T13:10:50.084Z,21.95
2024-02-28T13:13:17.581Z,20.33
2024-02-28T13:15:46.495Z,21.38
2024-02-28T13:18:13.490Z,20.77
2024-02-28T13:20:41.560Z,20.23
2024-02-28T13:23:08.647Z,19.08
2024-02-28T13:25:35.677Z,17.50
2024-02-28T13:28:02.820Z,18.92
2024-02-28T13:30:29.984Z,17.45
2024-02-28T13:32:56.896Z,19.65
2024-02-28T13:35:23.989Z,18.52
2024-02-28T13:37:50.880Z,19.23
2024-02-28T13:40:18.169Z,16.67
2024-02-28T13:42:46.321Z,16.83
2024-02-28T13:45:13.457Z,18.25
2024-02-28T13:47:40.994Z,18.52
2024-02-28T13:50:08.262Z,19.52
2024-02-28T13:52:35.248Z,17.75
2024-02-28T13:55:02.492Z,18.23
2024-02-28T13:57:29.492Z,19.85
2024-02-28T13:59:56.649Z,18.10
2024-02-28T14:02:27.685Z,20.48
2024-02-28T14:04:56.117Z,18.88
2024-02-28T14:07:23.077Z,18.50
2024-02-28T14:09:50.228Z,18.60
2024-02-28T14:12:17.320Z,18.33
2024-02-28T14:14:44.392Z,18.35
2024-02-28T14:17:11.233Z,20.75
2024-02-28T14:19:38.508Z,18.88
2024-02-28T14:22:06.031Z,16.88
2024-02-28T14:24:33.319Z,20.05
2024-02-28T14:27:00.259Z,18.75
2024-02-28T14:29:27.601Z,19.95
2024-02-28T14:31:54.541Z,18.67
2024-02-28T14:34:21.539Z,16.75
2024-02-28T14:36:49.854Z,18.00
2024-02-28T14:39:18.778Z,17.15
2024-02-28T14:41:46.207Z,18.40
2024-02-28T14:44:13.200Z,18.33
2024-02-28T14:46:40.462Z,17.90
2024-02-28T14:49:07.381Z,19.02
2024-02-28T14:51:34.696Z,19.58
2024-02-28T14:54:02.397Z,20.33
2024-02-28T14:56:29.392Z,20.52
2024-02-28T14:58:56.784Z,18.85
2024-02-28T15:01:24.808Z,19.10
2024-02-28T15:03:52.634Z,17.15
2024-02-28T15:06:19.597Z,19.20
2024-02-28T15:08:46.648Z,20.85
2024-02-28T15:11:13.641Z,25.40
2024-02-28T15:13:44.750Z,24.38
2024-02-28T15:16:12.694Z,21.15
2024-02-28T15:18:39.616Z,19.85
2024-02-28T15:21:08.602Z,24.60
2024-02-28T15:23:36.090Z,19.33
2024-02-28T15:26:03.152Z,20.02
2024-02-28T15:28:31.646Z,17.38
2024-02-28T15:30:59.646Z,19.60
2024-02-28T15:33:26.827Z,17.75
2024-02-28T15:35:55.499Z,18.65
2024-02-28T15:38:22.477Z,19.63
2024-02-28T15:40:49.442Z,21.80
2024-02-28T15:43:16.742Z,19.92
2024-02-28T15:45:44.609Z,20.90
2024-02-28T15:48:11.800Z,19.88
2024-02-28T15:50:38.934Z,18.80
2024-02-28T15:53:06.015Z,18.40
2024-02-28T15:55:33.337Z,21.13
2024-02-28T15:58:00.437Z,18.35
2024-02-28T16:00:27.551Z,19.05
2024-02-28T16:02:56.876Z,19.42
2024-02-28T16:05:29.324Z,20.50
2024-02-28T16:07:57.478Z,21.75
2024-02-28T16:10:24.767Z,19.77
2024-02-28T16:12:52.972Z,20.23
2024-02-28T16:15:20.475Z,22.10
2024-02-28T16:17:47.664Z,20.60
2024-02-28T16:20:17.406Z,20.33
2024-02-28T16:22:44.378Z,21.63
2024-02-28T16:25:11.636Z,20.60
2024-02-28T16:27:40.294Z,22.45
2024-02-28T16:30:09.672Z,22.45
2024-02-28T16:32:37.082Z,25.48
2024-02-28T16:35:04.225Z,23.05
2024-02-28T16:37:31.160Z,22.98
2024-02-28T16:39:58.221Z,24.15
2024-02-28T16:42:27.168Z,20.90
2024-02-28T16:44:54.074Z,22.63
2024-02-28T16:47:21.052Z,21.88
2024-02-28T16:49:48.758Z,22.85
2024-02-28T16:52:17.984Z,20.67
2024-02-28T16:54:45.155Z,22.10
2024-02-28T16:57:12.311Z,21.95
2024-02-28T16:59:39.459Z,19.27
2024-02-28T17:02:07.754Z,24.27
2024-02-28T17:04:35.803Z,21.13
2024-02-28T17:07:04.773Z,22.40
2024-02-28T17:09:32.008Z,24.20
2024-02-28T17:11:59.267Z,21.23
2024-02-28T17:14:26.530Z,20.50
2024-02-28T17:16:53.466Z,22.98
2024-02-28T17:19:20.350Z,21.95
2024-02-28T17:21:47.343Z,23.67
2024-02-28T17:24:14.302Z,23.50
2024-02-28T17:26:41.682Z,21.23
2024-02-28T17:29:09.472Z,21.75
2024-02-28T17:31:36.801Z,24.77
2024-02-28T17:34:03.988Z,22.20
2024-02-28T17:36:30.933Z,20.85
2024-02-28T17:38:57.935Z,23.95
2024-02-28T17:41:24.759Z,21.70
2024-02-28T17:43:51.877Z,21.35
2024-02-28T17:46:18.622Z,21.88
2024-02-28T17:48:45.557Z,25.00
2024-02-28T17:51:12.636Z,23.85
2024-02-28T17:53:39.783Z,19.23
2024-02-28T17:56:07.710Z,21.38
2024-02-28T17:58:35.405Z,22.85
2024-02-28T18:01:06.781Z,21.13
2024-02-28T18:03:34.019Z,21.67
2024-02-28T18:06:01.139Z,22.55
2024-02-28T18:08:29.893Z,22.95
2024-02-28T18:10:56.986Z,22.35
2024-02-28T18:13:23.893Z,20.33
2024-02-28T18:15:51.013Z,21.15
2024-02-28T18:18:18.053Z,20.73
2024-02-28T18:20:45.028Z,22.38
2024-02-28T18:23:17.688Z,23.85
2024-02-28T18:25:50.780Z,22.23
2024-02-28T18:28:18.575Z,21.60
2024-02-28T18:30:47.418Z,23.10
2024-02-28T18:33:14.376Z,22.73
2024-02-28T18:35:42.370Z,24.30
2024-02-28T18:38:10.461Z,24.48
2024-02-28T18:40:37.542Z,23.65
2024-02-28T18:43:04.863Z,25.10
2024-02-28T18:45:31.957Z,26.98
2024-02-28T18:47:58.978Z,24.15
2024-02-28T18:50:26.329Z,23.40
2024-02-28T18:52:53.231Z,24.17
2024-02-28T18:55:26.307Z,25.73
2024-02-28T18:57:55.410Z,24.42
2024-02-28T19:00:23.859Z,21.85
2024-02-28T19:02:51.902Z,27.35
2024-02-28T19:05:18.922Z,24.75
2024-02-28T19:07:46.283Z,24.63
2024-02-28T19:10:13.315Z,26.05
2024-02-28T19:12:40.261Z,25.38
2024-02-28T19:15:07.465Z,24.95
2024-02-28T19:17:34.532Z,23.58
2024-02-28T19:20:01.590Z,25.20
2024-02-28T19:22:28.497Z,23.45
2024-02-28T19:24:55.564Z,23.15
2024-02-28T19:27:22.692Z,25.98
2024-02-28T19:29:49.952Z,24.55
2024-02-28T19:32:17.428Z,29.67
2024-02-28T19:34:44.783Z,24.50
2024-02-28T19:37:11.812Z,25.98
2024-02-28T19:39:38.767Z,24.60
2024-02-28T19:42:05.885Z,25.52
2024-02-28T19:44:32.837Z,25.85
2024-02-28T19:46:59.758Z,27.77
2024-02-28T19:49:26.876Z,25.45
2024-02-28T19:51:54.099Z,25.15
2024-02-28T19:54:21.113Z,23.23
2024-02-28T19:56:47.870Z,22.17
2024-02-28T19:59:15.057Z,24.05
2024-02-28T20:01:42.134Z,22.42
2024-02-28T20:04:09.231Z,23.15
2024-02-28T20:06:42.624Z,24.35
2024-02-28T20:09:10.125Z,27.08
2024-02-28T20:11:37.085Z,22.33
2024-02-28T20:14:04.800Z,22.33
2024-02-28T20:16:31.981Z,22.88
2024-02-28T20:18:59.269Z,22.55
2024-02-28T20:21:30.739Z,23.33
2024-02-28T20:23:58.317Z,23.25
2024-02-28T20:26:25.878Z,23.50
2024-02-28T20:28:53.975Z,22.85
2024-02-28T20:31:23.212Z,21.73
2024-02-28T20:33:50.516Z,23.75
2024-02-28T20:36:18.447Z,22.45
2024-02-28T20:38:46.263Z,24.10
2024-02-28T20:41:13.985Z,21.90
2024-02-28T20:43:41.629Z,22.30
2024-02-28T20:46:08.746Z,23.50
2024-02-28T20:48:35.643Z,25.20
2024-02-28T20:51:02.900Z,20.88
2024-02-28T20:53:29.769Z,24.27
2024-02-28T20:55:56.822Z,23.67
2024-02-28T20:58:25.084Z,20.80
2024-02-28T21:00:55.489Z,26.27
2024-02-28T21:03:22.562Z,23.10
2024-02-28T21:05:49.499Z,24.27
2024-02-28T21:08:16.417Z,21.85
2024-02-28T21:10:43.669Z,22.27
2024-02-28T21:13:10.700Z,24.42
2024-02-28T21:15:38.866Z,23.48
2024-02-28T21:18:06.889Z,27.02
2024-02-28T21:20:34.041Z,24.88
2024-02-28T21:23:01.018Z,24.98
2024-02-28T21:25:28.217Z,23.17
2024-02-28T21:27:55.042Z,25.90
2024-02-28T21:30:22.017Z,25.65
2024-02-28T21:32:49.013Z,24.33
2024-02-28T21:35:16.835Z,23.50
2024-02-28T21:37:44.675Z,24.70
2024-02-28T21:40:12.936Z,23.35
2024-02-28T21:42:39.915Z,23.83
2024-02-28T21:45:07.781Z,24.20
2024-02-28T21:47:34.603Z,24.02
2024-02-28T21:50:01.625Z,22.48
2024-02-28T21:52:28.765Z,24.08
2024-02-28T21:54:55.725Z,24.55
2024-02-28T21:57:22.683Z,24.88
2024-02-28T21:59:51.209Z,26.42
2024-02-28T22:02:19.817Z,26.05
2024-02-28T22:04:46.858Z,25.92
2024-02-28T22:07:14.048Z,24.67
2024-02-28T22:09:41.372Z,24.23
2024-02-28T22:12:09.174Z,24.83
2024-02-28T22:14:39.302Z,25.00
2024-02-28T22:17:06.361Z,25.52
2024-02-28T22:19:33.425Z,23.88
2024-02-28T22:22:01.297Z,25.42
2024-02-28T22:24:28.797Z,25.50
2024-02-28T22:26:55.813Z,26.15
2024-02-28T22:29:23.720Z,27.90
2024-02-28T22:31:50.703Z,24.42
2024-02-28T22:34:18.694Z,25.20
2024-02-28T22:36:46.197Z,25.63
2024-02-28T22:39:13.194Z,26.80
2024-02-28T22:41:40.050Z,24.20
2024-02-28T22:44:07.095Z,23.98
2024-02-28T22:46:34.066Z,25.77
2024-02-28T22:49:04.483Z,27.20
2024-02-28T22:51:32.314Z,27.27
2024-02-28T22:53:59.507Z,26.20
2024-02-28T22:56:26.509Z,27.77
2024-02-28T22:58:53.341Z,27.45
2024-02-28T23:01:20.803Z,24.88
2024-02-28T23:03:47.956Z,24.88
2024-02-28T23:06:15.245Z,28.85
2024-02-28T23:08:42.399Z,25.98
2024-02-28T23:11:10.267Z,24.80
2024-02-28T23:13:37.754Z,24.33
2024-02-28T23:16:05.192Z,26.02
2024-02-28T23:18:32.222Z,25.90
2024-02-28T23:20:59.215Z,23.17
2024-02-28T23:23:26.870Z,23.92
2024-02-28T23:25:53.774Z,25.50
2024-02-28T23:28:20.769Z,25.48
2024-02-28T23:30:47.685Z,25.52
2024-02-28T23:33:14.961Z,25.45
2024-02-28T23:35:43.709Z,25.42
2024-02-28T23:38:10.546Z,27.02
2024-02-28T23:40:37.982Z,27.58
2024-02-28T23:43:05.144Z,25.92
2024-02-28T23:45:32.101Z,26.75
2024-02-28T23:47:59.059Z,26.58
2024-02-28T23:50:25.990Z,27.63
2024-02-28T23:52:52.872Z,26.80
2024-02-28T23:55:20.315Z,28.23
2024-02-28T23:57:50.042Z,24.80
